Impacts METAR Board INFO
IDs:

KHDC - Hammond/Northshore R, LA, US

Updated at: 0006 UTC 23 Feb 2018
Potential Impact None Slight Moderate High
Time22/12Z 22/13Z 22/14Z 22/15Z 22/16Z 22/17Z 22/18Z 22/19Z 22/20Z 22/21Z 22/22Z 22/23Z 23/00Z
VIS5 5 7 7 10 10 10 10 10 10 10 10 10
CIG5 7 7 9 17 22 26 30 35 -- -- -- --
CoverOVCOVCOVCOVCOVCBKNBKNBKNBKNSCTCLRCLRSCT
FltCatIFRIFRIFRIFRMVFRMVFRMVFRMVFRVFRVFRVFRVFRVFR
WXBRBR----------------------
WDir150150140170180150150150170160150150140
WSpd6 5 6 6 9 10 10 12 13 14 12 11 13
WGst-- -- -- -- -- 16 -- 17 17 19 18 -- 16
Raw hourly METARs
KHDC 221155Z AUTO 15006KT 5SM BR OVC005 22/21 A3026 RMK AO2 LTG DSNT N
KHDC 221255Z AUTO 15005KT 5SM BR OVC007 22/21 A3028 RMK AO2
KHDC 221355Z AUTO 14006KT 7SM OVC007 22/21 A3030 RMK AO2 LTG DSNT N
KHDC 221455Z AUTO 17006KT 7SM OVC009 24/22 A3031 RMK AO2 LTG DSNT N
KHDC 221555Z AUTO 18009KT 10SM BKN017 OVC022 25/21 A3032 RMK AO2
KHDC 221655Z AUTO 15010G16KT 10SM BKN022 BKN032 26/21 A3032 RMK AO2
KHDC 221755Z AUTO 15010KT 10SM BKN026 BKN036 BKN044 27/21 A3031 RMK AO2
KHDC 221855Z AUTO 15012G17KT 10SM BKN030 BKN040 BKN050 27/20 A3028 RMK AO2
KHDC 221955Z AUTO 17013G17KT 10SM BKN035 BKN044 28/20 A3026 RMK AO2
KHDC 222055Z AUTO 16014G19KT 10SM SCT046 SCT050 28/18 A3023 RMK AO2
KHDC 222155Z AUTO 15012G18KT 10SM CLR 27/19 A3024 RMK AO2
KHDC 222255Z AUTO 15011KT 10SM CLR 25/21 A3025 RMK AO2
KHDC 222355Z AUTO 14013G16KT 10SM SCT032 SCT060 23/21 A3026 RMK AO2